createdAt,value
2016-11-17T00:00:16.303Z,-87
2016-11-17T00:01:16.322Z,-87
2016-11-17T00:02:16.299Z,-85
2016-11-17T00:03:16.302Z,-85
2016-11-17T00:04:16.219Z,-86
2016-11-17T00:05:16.221Z,-86
2016-11-17T00:06:16.240Z,-86
2016-11-17T00:07:16.390Z,-86
2016-11-17T00:08:16.429Z,-86
2016-11-17T00:09:16.419Z,-85
2016-11-17T00:10:16.144Z,-86
2016-11-17T00:11:16.318Z,-85
2016-11-17T00:12:16.323Z,-86
2016-11-17T00:13:16.316Z,-85
2016-11-17T00:14:16.367Z,-85
2016-11-17T00:15:16.315Z,-86
2016-11-17T00:16:16.308Z,-85
2016-11-17T00:17:16.346Z,-85
2016-11-17T00:18:16.399Z,-85
2016-11-17T00:19:16.281Z,-85
2016-11-17T00:20:16.261Z,-85
2016-11-17T00:21:16.325Z,-86
2016-11-17T00:22:16.327Z,-85
2016-11-17T00:23:16.187Z,-85
2016-11-17T00:24:16.254Z,-86
2016-11-17T00:25:16.335Z,-85
2016-11-17T00:26:16.408Z,-86
2016-11-17T00:27:16.253Z,-85
2016-11-17T00:28:16.261Z,-85
2016-11-17T00:29:16.290Z,-85
2016-11-17T00:30:16.312Z,-86
2016-11-17T00:31:16.365Z,-86
2016-11-17T00:32:16.341Z,-85
2016-11-17T00:33:16.281Z,-86
2016-11-17T00:34:16.332Z,-86
2016-11-17T00:35:16.304Z,-85
2016-11-17T00:36:16.369Z,-86
2016-11-17T00:37:16.292Z,-85
2016-11-17T00:38:16.465Z,-85
2016-11-17T00:39:16.437Z,-85
2016-11-17T00:40:16.320Z,-85
2016-11-17T00:41:16.299Z,-85
2016-11-17T00:42:16.474Z,-85
2016-11-17T00:43:16.310Z,-85
2016-11-17T00:44:16.338Z,-85
2016-11-17T00:45:16.326Z,-85
2016-11-17T00:46:16.336Z,-84
2016-11-17T00:47:16.324Z,-85
2016-11-17T00:48:16.489Z,-85
2016-11-17T00:49:16.480Z,-85
2016-11-17T00:50:16.327Z,-85
2016-11-17T00:51:16.417Z,-84
2016-11-17T00:52:16.415Z,-85
2016-11-17T00:53:16.477Z,-85
2016-11-17T00:54:16.252Z,-85
2016-11-17T00:55:16.440Z,-85
2016-11-17T00:56:16.420Z,-86
2016-11-17T00:57:16.299Z,-85
2016-11-17T00:58:16.350Z,-85
2016-11-17T00:59:16.488Z,-85
2016-11-17T01:00:16.506Z,-86
2016-11-17T01:01:16.466Z,-86
2016-11-17T01:02:16.551Z,-86
2016-11-17T01:03:16.290Z,-86
2016-11-17T01:04:16.444Z,-86
2016-11-17T01:05:16.447Z,-86
2016-11-17T01:06:16.434Z,-86
2016-11-17T01:07:16.403Z,-86
2016-11-17T01:08:16.464Z,-86
2016-11-17T01:09:16.415Z,-85
2016-11-17T01:10:16.722Z,-85
2016-11-17T01:11:16.418Z,-86
2016-11-17T01:12:16.458Z,-86
2016-11-17T01:13:16.399Z,-85
2016-11-17T01:14:16.358Z,-86
2016-11-17T01:15:16.459Z,-85
2016-11-17T01:16:16.466Z,-86
2016-11-17T01:17:16.327Z,-86
2016-11-17T01:18:16.606Z,-85
2016-11-17T01:19:16.491Z,-85
2016-11-17T01:20:16.415Z,-85
2016-11-17T01:21:16.405Z,-86
2016-11-17T01:22:16.516Z,-86
2016-11-17T01:23:16.416Z,-85
2016-11-17T01:24:16.505Z,-85
2016-11-17T01:25:16.857Z,-86
2016-11-17T01:26:16.493Z,-85
2016-11-17T01:27:16.462Z,-85
2016-11-17T01:28:16.521Z,-85
2016-11-17T01:29:16.506Z,-85
2016-11-17T01:30:16.529Z,-85
2016-11-17T01:31:16.601Z,-85
2016-11-17T01:32:16.441Z,-86
2016-11-17T01:33:16.554Z,-85
2016-11-17T01:34:16.590Z,-85
2016-11-17T01:35:16.362Z,-85
2016-11-17T01:36:16.582Z,-85
2016-11-17T01:37:16.539Z,-85
2016-11-17T01:38:16.583Z,-86
2016-11-17T01:39:16.542Z,-86
2016-11-17T01:40:16.571Z,-86
2016-11-17T01:41:16.550Z,-86
2016-11-17T01:42:16.537Z,-85
2016-11-17T01:43:16.517Z,-85
2016-11-17T01:44:16.475Z,-85
2016-11-17T01:45:16.550Z,-86
2016-11-17T01:46:16.568Z,-86
2016-11-17T01:47:16.633Z,-85
2016-11-17T01:48:16.432Z,-85
2016-11-17T01:49:16.518Z,-85
2016-11-17T01:50:16.543Z,-86
2016-11-17T01:51:16.569Z,-85
2016-11-17T01:52:16.564Z,-86
2016-11-17T01:53:16.747Z,-86
2016-11-17T01:54:16.460Z,-86
2016-11-17T01:55:16.534Z,-85
2016-11-17T01:56:16.619Z,-86
2016-11-17T01:57:16.638Z,-86
2016-11-17T01:58:16.606Z,-85
2016-11-17T01:59:16.653Z,-86
2016-11-17T02:00:16.615Z,-86
2016-11-17T02:01:16.547Z,-86
2016-11-17T02:02:16.549Z,-86
2016-11-17T02:03:16.628Z,-86
2016-11-17T02:04:16.723Z,-86
2016-11-17T02:05:16.597Z,-86
2016-11-17T02:06:16.869Z,-86
2016-11-17T02:07:16.566Z,-85
2016-11-17T02:08:16.728Z,-86
2016-11-17T02:09:16.570Z,-86
2016-11-17T02:10:16.585Z,-86
2016-11-17T02:11:16.597Z,-87
2016-11-17T02:12:16.582Z,-86
2016-11-17T02:13:16.665Z,-86
2016-11-17T02:14:16.660Z,-86
2016-11-17T02:15:16.782Z,-86
2016-11-17T02:16:16.594Z,-86
2016-11-17T02:17:16.594Z,-86
2016-11-17T02:18:16.685Z,-86
2016-11-17T02:19:16.685Z,-87
2016-11-17T02:20:16.590Z,-86
2016-11-17T02:21:16.770Z,-86
2016-11-17T02:22:16.799Z,-86
2016-11-17T02:23:16.692Z,-86
2016-11-17T02:24:16.613Z,-86
2016-11-17T02:25:16.589Z,-86
2016-11-17T02:26:16.714Z,-86
2016-11-17T02:27:16.691Z,-87
2016-11-17T02:28:16.529Z,-86
2016-11-17T02:29:16.771Z,-86
2016-11-17T02:30:16.813Z,-86
2016-11-17T02:31:16.802Z,-86
2016-11-17T02:32:16.776Z,-86
2016-11-17T02:33:16.618Z,-87
2016-11-17T02:34:16.610Z,-87
2016-11-17T02:35:16.538Z,-88
2016-11-17T02:36:16.778Z,-87
2016-11-17T02:37:16.625Z,-87
2016-11-17T02:38:16.829Z,-86
2016-11-17T02:39:16.703Z,-87
2016-11-17T02:40:16.754Z,-87
2016-11-17T02:41:16.728Z,-87
2016-11-17T02:42:16.725Z,-87
2016-11-17T02:43:16.549Z,-86
2016-11-17T02:44:16.692Z,-86
2016-11-17T02:45:16.795Z,-87
2016-11-17T02:46:16.805Z,-86
2016-11-17T02:47:17.458Z,-86
2016-11-17T02:48:16.642Z,-86
2016-11-17T02:49:16.728Z,-86
2016-11-17T02:50:16.744Z,-86
2016-11-17T02:51:16.646Z,-87
2016-11-17T02:52:16.726Z,-87
2016-11-17T02:53:16.668Z,-86
2016-11-17T02:54:16.817Z,-87
2016-11-17T02:55:16.747Z,-86
2016-11-17T02:56:16.736Z,-87
2016-11-17T02:57:16.781Z,-87
2016-11-17T02:58:16.775Z,-87
2016-11-17T02:59:16.755Z,-87
2016-11-17T03:00:16.773Z,-87
2016-11-17T03:01:16.745Z,-87
2016-11-17T03:02:16.818Z,-87
2016-11-17T03:03:16.623Z,-87
2016-11-17T03:04:16.766Z,-86
2016-11-17T03:05:16.679Z,-87
2016-11-17T03:06:16.786Z,-87
2016-11-17T03:07:16.690Z,-87
2016-11-17T03:08:16.836Z,-87
2016-11-17T03:09:16.817Z,-87
2016-11-17T03:10:16.951Z,-87
2016-11-17T03:11:16.713Z,-87
2016-11-17T03:12:16.808Z,-86
2016-11-17T03:13:16.869Z,-87
2016-11-17T03:14:16.872Z,-87
2016-11-17T03:15:16.700Z,-87
2016-11-17T03:16:16.792Z,-87
2016-11-17T03:17:16.807Z,-87
2016-11-17T03:18:16.733Z,-87
2016-11-17T03:19:16.857Z,-87
2016-11-17T03:20:16.806Z,-87
2016-11-17T03:21:16.811Z,-88
2016-11-17T03:22:16.755Z,-87
2016-11-17T03:23:16.908Z,-87
2016-11-17T03:24:16.742Z,-86
2016-11-17T03:25:16.750Z,-87
2016-11-17T03:26:16.955Z,-86
2016-11-17T03:27:16.911Z,-87
2016-11-17T03:28:16.686Z,-87
2016-11-17T03:29:16.816Z,-87
2016-11-17T03:30:16.765Z,-87
2016-11-17T03:31:16.863Z,-87
2016-11-17T03:32:16.763Z,-87
2016-11-17T03:33:16.760Z,-87
2016-11-17T03:34:16.842Z,-87
2016-11-17T03:35:16.872Z,-87
2016-11-17T03:36:16.861Z,-87
2016-11-17T03:37:16.858Z,-87
2016-11-17T03:38:16.927Z,-87
2016-11-17T03:39:16.939Z,-87
2016-11-17T03:40:16.868Z,-87
2016-11-17T03:41:16.881Z,-87
2016-11-17T03:42:16.981Z,-87
2016-11-17T03:43:16.760Z,-87
2016-11-17T03:44:16.886Z,-87
2016-11-17T03:45:16.806Z,-88
2016-11-17T03:46:16.819Z,-88
2016-11-17T03:47:16.875Z,-88
2016-11-17T03:48:16.877Z,-87
2016-11-17T03:49:16.883Z,-88
2016-11-17T03:50:16.855Z,-88
2016-11-17T03:51:16.829Z,-87
2016-11-17T03:52:16.816Z,-88
2016-11-17T03:53:16.828Z,-88
2016-11-17T03:54:16.895Z,-88
2016-11-17T03:55:16.912Z,-87
2016-11-17T03:56:16.856Z,-88
2016-11-17T03:57:16.921Z,-88
2016-11-17T03:58:16.853Z,-88
2016-11-17T03:59:17.009Z,-88
2016-11-17T04:00:16.918Z,-87
2016-11-17T04:01:16.857Z,-87
2016-11-17T04:02:16.863Z,-87
2016-11-17T04:03:16.906Z,-87
2016-11-17T04:04:16.949Z,-87
2016-11-17T04:05:16.866Z,-87
2016-11-17T04:06:17.083Z,-87
2016-11-17T04:07:17.293Z,-88
2016-11-17T04:08:17.004Z,-87
2016-11-17T04:09:16.938Z,-87
2016-11-17T04:10:16.928Z,-87
2016-11-17T04:11:16.984Z,-88
2016-11-17T04:12:16.778Z,-88
2016-11-17T04:13:16.812Z,-87
2016-11-17T04:14:16.909Z,-88
2016-11-17T04:15:16.897Z,-88
2016-11-17T04:16:16.877Z,-89
2016-11-17T04:17:16.966Z,-88
2016-11-17T04:18:16.900Z,-88
2016-11-17T04:19:16.897Z,-88
2016-11-17T04:20:16.915Z,-88
2016-11-17T04:21:16.976Z,-88
2016-11-17T04:22:16.915Z,-87
2016-11-17T04:23:16.934Z,-88
2016-11-17T04:24:17.082Z,-88
2016-11-17T04:25:16.991Z,-88
2016-11-17T04:26:16.976Z,-87
2016-11-17T04:27:16.850Z,-88
2016-11-17T04:28:16.907Z,-88
2016-11-17T04:29:17.156Z,-89
2016-11-17T04:30:16.968Z,-88
2016-11-17T04:31:17.007Z,-88
2016-11-17T04:32:17.049Z,-88
2016-11-17T04:33:16.981Z,-87
2016-11-17T04:34:17.101Z,-88
2016-11-17T04:35:17.020Z,-88
2016-11-17T04:36:16.868Z,-88
2016-11-17T04:37:16.951Z,-88
2016-11-17T04:38:16.945Z,-88
2016-11-17T04:39:17.132Z,-88
2016-11-17T04:40:16.966Z,-88
2016-11-17T04:41:16.888Z,-88
2016-11-17T04:42:16.896Z,-88
2016-11-17T04:43:16.974Z,-88
2016-11-17T04:44:16.969Z,-88
2016-11-17T04:45:17.075Z,-88
2016-11-17T04:46:16.914Z,-88
2016-11-17T04:47:17.042Z,-88
2016-11-17T04:48:17.140Z,-88
2016-11-17T04:49:16.898Z,-88
2016-11-17T04:50:17.000Z,-88
2016-11-17T04:51:17.073Z,-87
2016-11-17T04:52:17.065Z,-88
2016-11-17T04:53:17.026Z,-87
2016-11-17T04:54:16.907Z,-88
2016-11-17T04:55:17.030Z,-88
2016-11-17T04:56:17.115Z,-88
2016-11-17T04:57:17.073Z,-87
2016-11-17T04:58:17.014Z,-88
2016-11-17T04:59:17.159Z,-88
2016-11-17T05:00:16.930Z,-88
2016-11-17T05:01:17.110Z,-88
2016-11-17T05:02:16.927Z,-88
2016-11-17T05:03:16.941Z,-88
2016-11-17T05:04:16.940Z,-88
2016-11-17T05:05:17.036Z,-88
2016-11-17T05:06:17.129Z,-88
2016-11-17T05:07:17.111Z,-88
2016-11-17T05:08:17.022Z,-88
2016-11-17T05:09:17.121Z,-89
2016-11-17T05:10:17.046Z,-88
2016-11-17T05:11:17.080Z,-88
2016-11-17T05:12:16.989Z,-88
2016-11-17T05:13:17.049Z,-88
2016-11-17T05:14:17.159Z,-88
2016-11-17T05:15:17.101Z,-87
2016-11-17T05:16:17.240Z,-88
2016-11-17T05:17:17.132Z,-88
2016-11-17T05:18:17.074Z,-88
2016-11-17T05:19:17.238Z,-87
2016-11-17T05:20:17.141Z,-88
2016-11-17T05:21:17.063Z,-87
2016-11-17T05:22:17.077Z,-88
2016-11-17T05:23:17.102Z,-88
2016-11-17T05:24:17.157Z,-88
2016-11-17T05:25:16.999Z,-88
2016-11-17T05:26:17.084Z,-87
2016-11-17T05:27:17.151Z,-87
2016-11-17T05:28:17.264Z,-87
2016-11-17T05:29:17.089Z,-87
2016-11-17T05:30:17.165Z,-88
2016-11-17T05:31:17.103Z,-88
2016-11-17T05:32:17.180Z,-88
2016-11-17T05:33:17.039Z,-87
2016-11-17T05:34:17.108Z,-88
2016-11-17T05:35:17.109Z,-88
2016-11-17T05:36:17.138Z,-89
2016-11-17T05:37:17.054Z,-88
2016-11-17T05:38:17.215Z,-88
2016-11-17T05:39:17.123Z,-88
2016-11-17T05:40:17.273Z,-88
2016-11-17T05:41:17.198Z,-87
2016-11-17T05:42:17.268Z,-87
2016-11-17T05:43:17.162Z,-88
2016-11-17T05:44:17.219Z,-87
2016-11-17T05:45:17.213Z,-88
2016-11-17T05:46:17.128Z,-88
2016-11-17T05:47:17.064Z,-88
2016-11-17T05:48:17.077Z,-88
2016-11-17T05:49:17.237Z,-88
2016-11-17T05:50:17.308Z,-88
2016-11-17T05:51:17.159Z,-88
2016-11-17T05:52:17.309Z,-88
2016-11-17T05:53:17.320Z,-88
2016-11-17T05:54:17.181Z,-87
2016-11-17T05:55:17.177Z,-88
2016-11-17T05:56:17.243Z,-88
2016-11-17T05:57:17.166Z,-88
2016-11-17T05:58:17.183Z,-88
2016-11-17T05:59:17.138Z,-88
2016-11-17T06:00:17.100Z,-88
2016-11-17T06:01:17.256Z,-88
2016-11-17T06:02:17.269Z,-88
2016-11-17T06:03:17.328Z,-88
2016-11-17T06:04:17.180Z,-88
2016-11-17T06:05:17.270Z,-88
2016-11-17T06:06:17.294Z,-88
2016-11-17T06:07:17.302Z,-88
2016-11-17T06:08:17.209Z,-88
2016-11-17T06:09:17.212Z,-88
2016-11-17T06:10:17.371Z,-88
2016-11-17T06:11:17.286Z,-88
2016-11-17T06:12:17.215Z,-88
2016-11-17T06:13:17.368Z,-87
2016-11-17T06:14:17.227Z,-88
2016-11-17T06:15:17.170Z,-88
2016-11-17T06:16:17.218Z,-88
2016-11-17T06:17:17.224Z,-88
2016-11-17T06:18:17.237Z,-88
2016-11-17T06:19:17.375Z,-88
2016-11-17T06:20:17.302Z,-87
2016-11-17T06:21:17.175Z,-87
2016-11-17T06:22:17.401Z,-88
2016-11-17T06:23:17.319Z,-88
2016-11-17T06:24:17.165Z,-88
2016-11-17T06:25:17.328Z,-88
2016-11-17T06:26:17.355Z,-88
2016-11-17T06:27:17.365Z,-88
2016-11-17T06:28:17.258Z,-87
2016-11-17T06:29:17.291Z,-87
2016-11-17T06:30:17.332Z,-88
2016-11-17T06:31:17.454Z,-88
2016-11-17T06:32:17.208Z,-88
2016-11-17T06:33:17.353Z,-88
2016-11-17T06:34:17.269Z,-88
2016-11-17T06:35:17.438Z,-88
2016-11-17T06:36:17.585Z,-88
2016-11-17T06:37:17.481Z,-88
2016-11-17T06:38:17.449Z,-88
2016-11-17T06:39:17.307Z,-87
2016-11-17T06:40:17.225Z,-88
2016-11-17T06:41:17.287Z,-87
2016-11-17T06:42:17.373Z,-88
2016-11-17T06:43:17.287Z,-88
2016-11-17T06:44:17.461Z,-88
2016-11-17T06:45:17.310Z,-88
2016-11-17T06:46:17.250Z,-88
2016-11-17T06:47:17.443Z,-88
2016-11-17T06:48:17.480Z,-88
2016-11-17T06:49:17.329Z,-88
2016-11-17T06:50:17.324Z,-88
2016-11-17T06:51:17.285Z,-88
2016-11-17T06:52:17.499Z,-88
2016-11-17T06:53:17.362Z,-88
2016-11-17T06:54:17.475Z,-88
2016-11-17T06:55:17.256Z,-88
2016-11-17T06:56:17.342Z,-88
2016-11-17T06:57:17.448Z,-88
2016-11-17T06:58:17.405Z,-88
2016-11-17T06:59:17.480Z,-89
2016-11-17T07:00:17.375Z,-87
2016-11-17T07:01:17.598Z,-88
2016-11-17T07:02:17.436Z,-88
2016-11-17T07:03:17.488Z,-88
2016-11-17T07:04:17.279Z,-88
2016-11-17T07:05:17.443Z,-88
2016-11-17T07:06:17.362Z,-88
2016-11-17T07:07:17.467Z,-88
2016-11-17T07:08:17.396Z,-88
2016-11-17T07:09:17.556Z,-87
2016-11-17T07:10:17.403Z,-88
2016-11-17T07:11:17.355Z,-88
2016-11-17T07:12:17.460Z,-88
2016-11-17T07:13:17.486Z,-88
2016-11-17T07:14:17.432Z,-88
2016-11-17T07:15:17.399Z,-87
2016-11-17T07:16:17.446Z,-88
2016-11-17T07:17:17.568Z,-88
2016-11-17T07:18:17.471Z,-89
2016-11-17T07:19:17.629Z,-90
2016-11-17T07:20:17.515Z,-89
2016-11-17T07:21:17.432Z,-88
2016-11-17T07:22:17.541Z,-88
2016-11-17T07:23:17.602Z,-88
2016-11-17T07:24:17.355Z,-88
2016-11-17T07:25:17.492Z,-88
2016-11-17T07:26:18.100Z,-89
2016-11-17T07:27:17.457Z,-89
2016-11-17T07:28:18.317Z,-88
2016-11-17T07:29:17.564Z,-88
2016-11-17T07:30:17.771Z,-88
2016-11-17T07:31:17.428Z,-88
2016-11-17T07:32:17.720Z,-88
2016-11-17T07:33:17.442Z,-88
2016-11-17T07:34:17.455Z,-88
2016-11-17T07:35:17.597Z,-88
2016-11-17T07:36:17.478Z,-88
2016-11-17T07:37:17.467Z,-89
2016-11-17T07:38:17.610Z,-88
2016-11-17T07:39:17.613Z,-88
2016-11-17T07:40:17.533Z,-89
2016-11-17T07:41:17.665Z,-88
2016-11-17T07:42:17.555Z,-88
2016-11-17T07:43:17.463Z,-88
2016-11-17T07:44:17.598Z,-88
2016-11-17T07:45:17.583Z,-88
2016-11-17T07:46:17.781Z,-88
2016-11-17T07:47:17.580Z,-88
2016-11-17T07:48:17.537Z,-88
2016-11-17T07:49:17.539Z,-88
2016-11-17T07:50:17.501Z,-88
2016-11-17T07:51:17.485Z,-88
2016-11-17T07:52:17.675Z,-88
2016-11-17T07:53:17.647Z,-88
2016-11-17T07:54:17.577Z,-88
2016-11-17T07:55:17.583Z,-88
2016-11-17T07:56:17.620Z,-88
2016-11-17T07:57:17.693Z,-89
2016-11-17T07:58:17.748Z,-88
2016-11-17T07:59:17.514Z,-87
2016-11-17T08:00:17.650Z,-89
2016-11-17T08:01:18.519Z,-88
2016-11-17T08:02:17.605Z,-89
2016-11-17T08:03:17.457Z,-89
2016-11-17T08:04:17.551Z,-88
2016-11-17T08:05:17.550Z,-88
2016-11-17T08:06:17.820Z,-88
2016-11-17T08:07:17.685Z,-89
2016-11-17T08:08:17.583Z,-89
2016-11-17T08:09:17.784Z,-89
2016-11-17T08:10:18.327Z,-89
2016-11-17T08:11:17.644Z,-90
2016-11-17T08:12:17.671Z,-87
2016-11-17T08:13:17.692Z,-88
2016-11-17T08:14:17.666Z,-89
2016-11-17T08:15:19.295Z,-90
2016-11-17T08:16:17.836Z,-89
2016-11-17T08:17:17.801Z,-90
2016-11-17T08:18:17.863Z,-88
2016-11-17T08:19:17.906Z,-88
2016-11-17T08:20:17.705Z,-88
2016-11-17T08:21:17.680Z,-88
2016-11-17T08:22:17.669Z,-88
2016-11-17T08:23:17.793Z,-89
2016-11-17T08:24:17.666Z,-88
2016-11-17T08:25:17.628Z,-88
2016-11-17T08:26:17.773Z,-89
2016-11-17T08:27:17.847Z,-88
2016-11-17T08:28:17.544Z,-89
2016-11-17T08:29:17.792Z,-88
2016-11-17T08:30:17.607Z,-88
2016-11-17T08:31:17.761Z,-89
2016-11-17T08:32:17.856Z,-89
2016-11-17T08:33:17.820Z,-89
2016-11-17T08:34:17.761Z,-89
2016-11-17T08:35:17.662Z,-88
2016-11-17T08:36:17.777Z,-88
2016-11-17T08:37:17.714Z,-88
2016-11-17T08:38:17.725Z,-88
2016-11-17T08:39:17.800Z,-88
2016-11-17T08:40:17.792Z,-88
2016-11-17T08:41:17.686Z,-89
2016-11-17T08:42:17.689Z,-89
2016-11-17T08:43:17.946Z,-89
2016-11-17T08:44:17.897Z,-89
2016-11-17T08:45:17.858Z,-89
2016-11-17T08:46:17.650Z,-89
2016-11-17T08:47:17.822Z,-88
2016-11-17T08:48:17.683Z,-89
2016-11-17T08:49:17.896Z,-89
2016-11-17T08:50:17.939Z,-90
2016-11-17T08:51:18.001Z,-88
2016-11-17T08:52:17.720Z,-88
2016-11-17T08:53:17.964Z,-89
2016-11-17T08:54:17.624Z,-88
2016-11-17T08:55:18.025Z,-89
2016-11-17T08:56:18.114Z,-88
2016-11-17T08:57:17.734Z,-89
2016-11-17T08:58:17.919Z,-89
2016-11-17T08:59:17.880Z,-88
2016-11-17T09:00:17.804Z,-89
2016-11-17T09:01:32.937Z,-89
2016-11-17T09:02:18.246Z,-88
2016-11-17T09:03:17.822Z,-88
2016-11-17T09:04:17.711Z,-89
2016-11-17T09:05:17.779Z,-88
2016-11-17T09:06:17.843Z,-89
2016-11-17T09:07:17.714Z,-89
2016-11-17T09:08:23.293Z,-89
2016-11-17T09:09:17.874Z,-89
2016-11-17T09:10:17.891Z,-88
2016-11-17T09:11:17.947Z,-88
2016-11-17T09:12:17.847Z,-89
2016-11-17T09:13:18.000Z,-89
2016-11-17T09:14:17.876Z,-88
2016-11-17T09:15:17.795Z,-89
2016-11-17T09:16:17.988Z,-89
2016-11-17T09:17:17.893Z,-89
2016-11-17T09:18:18.608Z,-89
2016-11-17T09:19:18.060Z,-88
2016-11-17T09:20:17.859Z,-89
2016-11-17T09:21:17.905Z,-89
2016-11-17T09:22:17.799Z,-88
2016-11-17T09:23:17.868Z,-89
2016-11-17T09:24:18.009Z,-89
2016-11-17T09:25:17.771Z,-87
2016-11-17T09:26:17.861Z,-88
2016-11-17T09:27:17.781Z,-88
2016-11-17T09:28:17.970Z,-88
2016-11-17T09:29:17.837Z,-90
2016-11-17T09:30:17.771Z,-89
2016-11-17T09:31:17.958Z,-89
2016-11-17T09:32:17.994Z,-89
2016-11-17T09:33:17.938Z,-89
2016-11-17T09:34:17.919Z,-89
2016-11-17T09:35:17.885Z,-89
2016-11-17T09:36:17.814Z,-89
2016-11-17T09:37:17.910Z,-88
2016-11-17T09:38:17.792Z,-89
2016-11-17T09:39:18.052Z,-88
2016-11-17T09:40:17.933Z,-89
2016-11-17T09:41:17.897Z,-89
2016-11-17T09:42:17.837Z,-88
2016-11-17T09:43:17.967Z,-87
2016-11-17T09:44:17.880Z,-87
2016-11-17T09:45:17.917Z,-88
2016-11-17T09:46:18.063Z,-87
2016-11-17T09:47:17.891Z,-87
2016-11-17T09:48:17.898Z,-88
2016-11-17T09:49:18.019Z,-88
2016-11-17T09:50:17.981Z,-87
2016-11-17T09:51:17.957Z,-87
2016-11-17T09:52:17.763Z,-87
2016-11-17T09:53:18.102Z,-87
2016-11-17T09:54:18.034Z,-87
2016-11-17T09:55:17.912Z,-87
2016-11-17T09:56:18.037Z,-87
2016-11-17T09:57:17.996Z,-87
2016-11-17T09:58:18.861Z,-88
2016-11-17T09:59:17.916Z,-88
2016-11-17T10:00:18.982Z,-89
2016-11-17T10:01:18.009Z,-87
2016-11-17T10:02:17.961Z,-87
2016-11-17T10:03:18.202Z,-88
2016-11-17T10:04:17.946Z,-87
2016-11-17T10:05:18.154Z,-87
2016-11-17T10:06:18.017Z,-87
2016-11-17T10:07:17.981Z,-88
2016-11-17T10:08:18.762Z,-88
2016-11-17T10:09:17.963Z,-88
2016-11-17T10:10:17.890Z,-87
2016-11-17T10:11:17.884Z,-88
2016-11-17T10:12:18.070Z,-88
2016-11-17T10:13:17.941Z,-88
2016-11-17T10:14:17.934Z,-87
2016-11-17T10:15:18.017Z,-88
2016-11-17T10:16:18.926Z,-87
2016-11-17T10:17:18.111Z,-86
2016-11-17T10:18:17.996Z,-87
2016-11-17T10:19:18.005Z,-86
2016-11-17T10:20:18.054Z,-87
2016-11-17T10:21:18.044Z,-86
2016-11-17T10:22:18.081Z,-87
2016-11-17T10:23:17.947Z,-88
2016-11-17T10:24:18.031Z,-87
2016-11-17T10:25:18.014Z,-87
2016-11-17T10:26:17.890Z,-87
2016-11-17T10:27:17.990Z,-87
2016-11-17T10:28:18.085Z,-87
2016-11-17T10:29:18.052Z,-87
2016-11-17T10:30:18.660Z,-87
2016-11-17T10:31:18.472Z,-87
2016-11-17T10:32:18.451Z,-88
2016-11-17T10:33:18.227Z,-87
2016-11-17T10:34:18.453Z,-87
2016-11-17T10:35:20.156Z,-87
2016-11-17T10:36:18.929Z,-88
2016-11-17T10:37:18.261Z,-87
2016-11-17T10:38:22.781Z,-88
2016-11-17T10:39:18.146Z,-88
2016-11-17T10:40:18.080Z,-88
2016-11-17T10:41:19.033Z,-88
2016-11-17T10:42:18.134Z,-88
2016-11-17T10:43:18.148Z,-87
2016-11-17T10:44:17.980Z,-88
2016-11-17T10:45:18.139Z,-87
2016-11-17T10:46:18.114Z,-88
2016-11-17T10:47:18.229Z,-87
2016-11-17T10:48:18.034Z,-87
2016-11-17T10:49:18.879Z,-88
2016-11-17T10:50:18.010Z,-88
2016-11-17T10:51:18.173Z,-87
2016-11-17T10:52:18.123Z,-88
2016-11-17T10:53:18.186Z,-88
2016-11-17T10:54:18.203Z,-88
2016-11-17T10:55:18.069Z,-87
2016-11-17T10:56:18.098Z,-86
2016-11-17T10:57:18.098Z,-86
2016-11-17T10:58:18.271Z,-87
2016-11-17T10:59:18.192Z,-87
2016-11-17T11:00:19.136Z,-87
2016-11-17T11:01:18.084Z,-87
2016-11-17T11:02:18.380Z,-88
2016-11-17T11:03:18.097Z,-88
2016-11-17T11:04:18.277Z,-87
2016-11-17T11:05:18.228Z,-87
2016-11-17T11:06:19.534Z,-87
2016-11-17T11:07:19.136Z,-87
2016-11-17T11:08:18.229Z,-88
2016-11-17T11:09:18.203Z,-87
2016-11-17T11:10:18.111Z,-87
2016-11-17T11:11:18.058Z,-86
2016-11-17T11:12:18.359Z,-88
2016-11-17T11:13:18.151Z,-88
2016-11-17T11:14:18.415Z,-87
2016-11-17T11:15:18.341Z,-87
2016-11-17T11:16:19.979Z,-87
2016-11-17T11:17:18.131Z,-87
2016-11-17T11:18:18.094Z,-87
2016-11-17T11:19:18.379Z,-87
2016-11-17T11:20:18.481Z,-87
2016-11-17T11:21:18.330Z,-87
2016-11-17T11:22:18.027Z,-87
2016-11-17T11:23:18.098Z,-87
2016-11-17T11:24:18.379Z,-87
2016-11-17T11:25:18.223Z,-87
2016-11-17T11:26:18.295Z,-87
2016-11-17T11:27:18.281Z,-87
2016-11-17T11:28:18.196Z,-88
2016-11-17T11:29:18.264Z,-87
2016-11-17T11:30:18.636Z,-88
2016-11-17T11:31:18.165Z,-87
2016-11-17T11:32:18.304Z,-87
2016-11-17T11:33:18.158Z,-87
2016-11-17T11:34:18.276Z,-87
2016-11-17T11:35:18.163Z,-86
2016-11-17T11:36:18.254Z,-87
2016-11-17T11:37:18.178Z,-88
2016-11-17T11:38:18.169Z,-88
2016-11-17T11:39:18.053Z,-87
2016-11-17T11:40:18.420Z,-87
2016-11-17T11:41:18.535Z,-87
2016-11-17T11:42:18.194Z,-86
2016-11-17T11:43:18.467Z,-87
2016-11-17T11:44:18.217Z,-87
2016-11-17T11:45:18.285Z,-87
2016-11-17T11:46:18.393Z,-87
2016-11-17T11:47:18.260Z,-87
2016-11-17T11:48:18.284Z,-88
2016-11-17T11:49:18.313Z,-87
2016-11-17T11:50:18.155Z,-88
2016-11-17T11:51:18.543Z,-88
2016-11-17T11:52:18.335Z,-88
2016-11-17T11:53:18.194Z,-88
2016-11-17T11:54:18.209Z,-89
2016-11-17T11:55:18.316Z,-88
2016-11-17T11:56:18.284Z,-89
2016-11-17T11:57:18.265Z,-88
2016-11-17T11:58:18.231Z,-87
2016-11-17T11:59:18.329Z,-88
2016-11-17T12:00:18.283Z,-88
2016-11-17T12:01:18.536Z,-87
2016-11-17T12:02:18.359Z,-87
2016-11-17T12:03:18.252Z,-89
2016-11-17T12:04:18.449Z,-90
2016-11-17T12:05:18.378Z,-88
2016-11-17T12:06:18.233Z,-90
2016-11-17T12:07:18.369Z,-88
2016-11-17T12:08:18.339Z,-87
2016-11-17T12:09:18.570Z,-88
2016-11-17T12:10:18.237Z,-88
2016-11-17T12:11:18.254Z,-87
2016-11-17T12:12:18.415Z,-87
2016-11-17T12:13:18.376Z,-88
2016-11-17T12:14:18.304Z,-88
2016-11-17T12:15:18.270Z,-89
2016-11-17T12:16:18.945Z,-88
2016-11-17T12:17:18.165Z,-88
2016-11-17T12:18:18.495Z,-87
2016-11-17T12:19:18.337Z,-89
2016-11-17T12:20:18.224Z,-88
2016-11-17T12:21:18.274Z,-89
2016-11-17T12:22:18.330Z,-90
2016-11-17T12:23:18.471Z,-87
2016-11-17T12:24:18.371Z,-89
2016-11-17T12:25:19.383Z,-89
2016-11-17T12:26:18.454Z,-88
2016-11-17T12:27:18.388Z,-89
2016-11-17T12:28:18.497Z,-89
2016-11-17T12:29:18.390Z,-91
2016-11-17T12:30:18.357Z,-89
2016-11-17T12:31:18.477Z,-88
2016-11-17T12:32:18.414Z,-89
2016-11-17T12:33:18.355Z,-90
2016-11-17T12:34:18.425Z,-88
2016-11-17T12:35:18.379Z,-91
2016-11-17T12:36:18.375Z,-89
2016-11-17T12:37:18.398Z,-88
2016-11-17T12:38:18.503Z,-90
2016-11-17T12:39:18.453Z,-88
2016-11-17T12:40:18.354Z,-90
2016-11-17T12:41:18.409Z,-89
2016-11-17T12:42:19.321Z,-90
2016-11-17T12:43:18.270Z,-89
2016-11-17T12:44:18.666Z,-89
2016-11-17T12:45:18.473Z,-89
2016-11-17T12:46:18.470Z,-88
2016-11-17T12:47:18.639Z,-89
2016-11-17T12:48:18.470Z,-89
2016-11-17T12:49:18.379Z,-90
2016-11-17T12:50:18.490Z,-89
2016-11-17T12:51:18.462Z,-88
2016-11-17T12:52:18.534Z,-90
2016-11-17T12:53:18.379Z,-89
2016-11-17T12:54:18.578Z,-89
2016-11-17T12:55:18.473Z,-89
2016-11-17T12:56:18.403Z,-88
2016-11-17T12:57:18.510Z,-88
2016-11-17T12:58:18.322Z,-90
2016-11-17T12:59:18.391Z,-88
2016-11-17T13:00:18.602Z,-88
2016-11-17T13:01:18.534Z,-88
2016-11-17T13:02:18.352Z,-88
2016-11-17T13:03:18.419Z,-88
2016-11-17T13:04:20.393Z,-89
2016-11-17T13:05:18.804Z,-88
2016-11-17T13:06:18.373Z,-90
2016-11-17T13:07:18.447Z,-90
2016-11-17T13:08:18.477Z,-88
2016-11-17T13:09:18.599Z,-89
2016-11-17T13:10:19.601Z,-89
2016-11-17T13:11:18.631Z,-88
2016-11-17T13:12:21.865Z,-88
2016-11-17T13:13:18.929Z,-88
2016-11-17T13:14:18.749Z,-87
2016-11-17T13:15:18.831Z,-87
2016-11-17T13:16:18.585Z,-89
2016-11-17T13:17:18.662Z,-89
2016-11-17T13:18:18.483Z,-90
2016-11-17T13:19:18.526Z,-90
2016-11-17T13:20:18.581Z,-89
2016-11-17T13:21:18.508Z,-91
2016-11-17T13:22:18.443Z,-90
2016-11-17T13:23:18.548Z,-89
2016-11-17T13:24:20.360Z,-89
2016-11-17T13:25:19.220Z,-88
2016-11-17T13:26:19.857Z,-89
2016-11-17T13:27:18.707Z,-89
2016-11-17T13:28:18.652Z,-88
2016-11-17T13:29:18.493Z,-89
2016-11-17T13:30:18.633Z,-90
2016-11-17T13:31:18.691Z,-88
2016-11-17T13:32:20.326Z,-91
2016-11-17T13:33:18.968Z,-90
2016-11-17T13:34:18.604Z,-88
2016-11-17T13:35:18.560Z,-88
2016-11-17T13:36:18.678Z,-90
2016-11-17T13:37:25.578Z,-90
2016-11-17T13:38:18.460Z,-88
2016-11-17T13:39:18.602Z,-89
2016-11-17T13:40:18.495Z,-88
2016-11-17T13:41:18.605Z,-89
2016-11-17T13:42:18.674Z,-89
2016-11-17T13:43:18.599Z,-86
2016-11-17T13:44:18.663Z,-86
2016-11-17T13:45:18.680Z,-86
2016-11-17T13:46:18.603Z,-88